Time,TemperatureF,DewpointF,PressureIn,WindDirection,WindDirectionDegrees,WindSpeedMPH,WindSpeedGustMPH,Humidity,HourlyPrecipIn,Conditions,Clouds,dailyrainin,SoftwareType,DateUTC
2013-01-07 00:00:00,32.4,27.5,30.04,SW,227,1.0,1.0,82,0.00,,,0.00,Wunderground v.1.15,2013-01-07 05:00:00,
2013-01-07 00:05:00,32.6,27.7,30.04,SW,224,1.0,2.0,82,0.00,,,0.00,Wunderground v.1.15,2013-01-07 05:05:00,
2013-01-07 00:10:00,33.1,27.9,30.04,SW,228,1.0,2.0,81,0.00,,,0.00,Wunderground v.1.15,2013-01-07 05:10:00,
2013-01-07 00:20:00,34.5,28.3,30.05,WSW,242,2.0,2.0,78,0.00,,,0.00,Wunderground v.1.15,2013-01-07 05:20:00,
2013-01-07 00:30:00,34.0,28.5,30.05,WSW,246,1.0,1.0,80,0.00,,,0.00,Wunderground v.1.15,2013-01-07 05:30:00,
2013-01-07 00:40:00,33.5,28.0,30.05,WSW,239,1.0,1.0,80,0.00,,,0.00,Wunderground v.1.15,2013-01-07 05:40:00,
2013-01-07 00:50:00,33.9,28.7,30.06,SW,219,1.0,2.0,81,0.00,,,0.00,Wunderground v.1.15,2013-01-07 05:50:00,
2013-01-07 01:00:00,34.1,28.6,30.06,WSW,258,1.0,1.0,80,0.00,,,0.00,Wunderground v.1.15,2013-01-07 06:00:00,
2013-01-07 01:10:00,33.5,28.3,30.06,SW,219,1.0,1.0,81,0.00,,,0.00,Wunderground v.1.15,2013-01-07 06:10:00,
2013-01-07 01:20:00,33.1,28.2,30.06,WSW,241,1.0,1.0,82,0.00,,,0.00,Wunderground v.1.15,2013-01-07 06:20:00,
2013-01-07 01:30:00,32.7,27.5,30.07,WSW,242,0.0,0.0,81,0.00,,,0.00,Wunderground v.1.15,2013-01-07 06:30:00,
2013-01-07 01:40:00,32.2,27.6,30.07,West,269,1.0,1.0,83,0.00,,,0.00,Wunderground v.1.15,2013-01-07 06:40:00,
2013-01-07 01:50:00,32.1,27.5,30.07,SSE,161,1.0,2.0,83,0.00,,,0.00,Wunderground v.1.15,2013-01-07 06:50:00,
2013-01-07 02:00:00,32.0,27.4,30.08,SW,226,1.0,1.0,83,0.00,,,0.00,Wunderground v.1.15,2013-01-07 07:00:00,
2013-01-07 02:10:00,31.4,27.1,30.08,SSW,207,0.0,0.0,84,0.00,,,0.00,Wunderground v.1.15,2013-01-07 07:10:00,
2013-01-07 02:20:00,30.8,26.8,30.08,SSW,207,0.0,0.0,85,0.00,,,0.00,Wunderground v.1.15,2013-01-07 07:20:00,
2013-01-07 02:30:00,30.7,26.7,30.08,SW,221,0.0,0.0,85,0.00,,,0.00,Wunderground v.1.15,2013-01-07 07:30:00,
2013-01-07 02:40:00,30.4,26.7,30.09,SW,222,0.0,0.0,86,0.00,,,0.00,Wunderground v.1.15,2013-01-07 07:40:00,
2013-01-07 02:50:00,30.2,26.5,30.09,WSW,243,0.0,1.0,86,0.00,,,0.00,Wunderground v.1.15,2013-01-07 07:50:00,
2013-01-07 03:00:00,30.1,26.7,30.09,SSE,159,0.0,1.0,87,0.00,,,0.00,Wunderground v.1.15,2013-01-07 08:00:00,
2013-01-07 03:10:00,30.4,26.7,30.08,South,179,1.0,1.0,86,0.00,,,0.00,Wunderground v.1.15,2013-01-07 08:10:00,
2013-01-07 03:20:00,30.4,27.0,30.08,SW,227,1.0,1.0,87,0.00,,,0.00,Wunderground v.1.15,2013-01-07 08:20:00,
2013-01-07 03:30:00,30.2,26.8,30.09,WSW,239,1.0,1.0,87,0.00,,,0.00,Wunderground v.1.15,2013-01-07 08:30:00,
2013-01-07 03:40:00,30.6,27.5,30.09,SW,226,1.0,1.0,88,0.00,,,0.00,Wunderground v.1.15,2013-01-07 08:40:00,
2013-01-07 03:55:00,31.4,28.0,30.09,WSW,255,1.0,2.0,87,0.00,,,0.00,Wunderground v.1.15,2013-01-07 08:55:00,
2013-01-07 04:00:00,31.9,28.5,30.10,WSW,247,1.0,1.0,87,0.00,,,0.00,Wunderground v.1.15,2013-01-07 09:00:00,
2013-01-07 04:10:00,33.7,29.4,30.10,WSW,241,1.0,1.0,84,0.00,,,0.00,Wunderground v.1.15,2013-01-07 09:10:00,
2013-01-07 04:20:00,34.4,30.1,30.11,SSW,198,1.0,1.0,84,0.00,,,0.00,Wunderground v.1.15,2013-01-07 09:20:00,
2013-01-07 04:30:00,36.0,30.4,30.11,WSW,240,2.0,2.0,80,0.00,,,0.00,Wunderground v.1.15,2013-01-07 09:30:00,
2013-01-07 04:40:00,36.1,30.2,30.11,West,261,1.0,1.0,79,0.00,,,0.00,Wunderground v.1.15,2013-01-07 09:40:00,
2013-01-07 04:50:00,35.2,29.6,30.11,SW,220,0.0,0.0,80,0.00,,,0.00,Wunderground v.1.15,2013-01-07 09:50:00,
2013-01-07 05:00:00,34.7,29.5,30.12,SW,225,0.0,4.0,81,0.00,,,-99.99,WeatherLink 6.0.2,2013-01-07 10:00:00,
2013-01-07 05:10:00,33.8,28.9,30.13,SW,234,1.0,1.0,82,0.00,,,0.00,Wunderground v.1.15,2013-01-07 10:10:00,
2013-01-07 05:20:00,32.9,28.6,30.13,SW,233,1.0,2.0,84,0.00,,,0.00,Wunderground v.1.15,2013-01-07 10:20:00,
2013-01-07 05:30:00,32.6,28.3,30.14,SW,233,2.0,2.0,84,0.00,,,0.00,Wunderground v.1.15,2013-01-07 10:30:00,
2013-01-07 05:40:00,32.3,28.3,30.14,West,259,1.0,1.0,85,0.00,,,0.00,Wunderground v.1.15,2013-01-07 10:40:00,
2013-01-07 05:50:00,32.6,28.6,30.15,West,259,0.0,0.0,85,0.00,,,0.00,Wunderground v.1.15,2013-01-07 10:50:00,
2013-01-07 06:00:00,33.3,29.3,30.15,SSW,207,1.0,1.0,85,0.00,,,0.00,Wunderground v.1.15,2013-01-07 11:00:00,
2013-01-07 06:10:00,35.0,29.8,30.16,South,190,1.0,3.0,81,0.00,,,0.00,Wunderground v.1.15,2013-01-07 11:10:00,
2013-01-07 06:20:00,34.7,29.5,30.16,SW,216,1.0,1.0,81,0.00,,,0.00,Wunderground v.1.15,2013-01-07 11:20:00,
2013-01-07 06:30:00,35.1,29.9,30.17,South,182,1.0,1.0,81,0.00,,,0.00,Wunderground v.1.15,2013-01-07 11:30:00,
2013-01-07 06:40:00,35.3,29.4,30.18,WSW,237,1.0,1.0,79,0.00,,,0.00,Wunderground v.1.15,2013-01-07 11:40:00,
2013-01-07 06:50:00,35.0,29.8,30.18,SW,228,1.0,2.0,81,0.00,,,0.00,Wunderground v.1.15,2013-01-07 11:50:00,
2013-01-07 07:00:00,36.1,30.5,30.18,SW,225,1.0,6.0,80,0.00,,,-99.99,WeatherLink 6.0.2,2013-01-07 12:00:00,
2013-01-07 07:10:00,36.5,30.6,30.19,WSW,237,1.0,1.0,79,0.00,,,0.00,Wunderground v.1.15,2013-01-07 12:10:00,
2013-01-07 07:20:00,36.3,30.7,30.20,WSW,246,0.0,0.0,80,0.00,,,0.00,Wunderground v.1.15,2013-01-07 12:20:00,
2013-01-07 07:30:00,35.9,30.3,30.21,WSW,252,0.0,0.0,80,0.00,,,0.00,Wunderground v.1.15,2013-01-07 12:30:00,
2013-01-07 07:40:00,35.6,30.0,30.21,WSW,240,0.0,0.0,80,0.00,,,0.00,Wunderground v.1.15,2013-01-07 12:40:00,
2013-01-07 07:50:00,35.4,30.1,30.22,WSW,240,0.0,0.0,81,0.00,,,0.00,Wunderground v.1.15,2013-01-07 12:50:00,
2013-01-07 08:00:00,35.2,30.0,30.22,WNW,294,0.0,0.0,81,0.00,,,0.00,Wunderground v.1.15,2013-01-07 13:00:00,
2013-01-07 08:10:00,34.8,29.9,30.23,SW,235,0.0,0.0,82,0.00,,,0.00,Wunderground v.1.15,2013-01-07 13:10:00,
2013-01-07 08:20:00,35.3,30.4,30.23,SW,217,0.0,0.0,82,0.00,,,0.00,Wunderground v.1.15,2013-01-07 13:20:00,
2013-01-07 08:30:00,37.5,31.6,30.24,SSW,202,0.0,4.0,79,0.00,,,-99.99,WeatherLink 6.0.2,2013-01-07 13:30:00,
2013-01-07 08:40:00,40.5,32.2,30.25,SW,230,2.0,2.0,72,0.00,,,0.00,Wunderground v.1.15,2013-01-07 13:40:00,
2013-01-07 08:50:00,41.8,32.0,30.25,ESE,105,2.0,3.0,68,0.00,,,0.00,Wunderground v.1.15,2013-01-07 13:50:00,
2013-01-07 09:00:00,42.2,32.0,30.26,South,174,1.0,4.0,67,0.00,,,0.00,Wunderground v.1.15,2013-01-07 14:00:00,
2013-01-07 09:10:00,42.2,31.6,30.26,East,84,2.0,3.0,66,0.00,,,0.00,Wunderground v.1.15,2013-01-07 14:10:00,
2013-01-07 09:20:00,42.4,31.5,30.26,East,79,2.0,3.0,65,0.00,,,0.00,Wunderground v.1.15,2013-01-07 14:20:00,
2013-01-07 09:30:00,42.9,31.2,30.27,SE,133,2.0,2.0,63,0.00,,,0.00,Wunderground v.1.15,2013-01-07 14:30:00,
2013-01-07 09:40:00,42.8,30.7,30.28,NW,323,2.0,2.0,62,0.00,,,0.00,Wunderground v.1.15,2013-01-07 14:40:00,
2013-01-07 09:50:00,43.9,30.9,30.28,SSW,204,3.0,3.0,60,0.00,,,0.00,Wunderground v.1.15,2013-01-07 14:50:00,
2013-01-07 10:00:00,43.9,30.1,30.28,WSW,243,3.0,3.0,58,0.00,,,0.00,Wunderground v.1.15,2013-01-07 15:00:00,
2013-01-07 10:10:00,43.7,29.9,30.28,SSW,201,3.0,5.0,58,0.00,,,0.00,Wunderground v.1.15,2013-01-07 15:10:00,
2013-01-07 10:20:00,43.8,29.1,30.30,NE,51,3.0,3.0,56,0.00,,,0.00,Wunderground v.1.15,2013-01-07 15:20:00,
2013-01-07 10:30:00,44.0,28.4,30.30,NW,304,3.0,3.0,54,0.00,,,0.00,Wunderground v.1.15,2013-01-07 15:30:00,
2013-01-07 10:40:00,44.0,28.0,30.30,NE,51,3.0,4.0,53,0.00,,,0.00,Wunderground v.1.15,2013-01-07 15:40:00,
2013-01-07 10:50:00,43.6,27.6,30.30,NE,55,4.0,4.0,53,0.00,,,0.00,Wunderground v.1.15,2013-01-07 15:50:00,
2013-01-07 11:00:00,44.5,28.0,30.31,WSW,242,2.0,6.0,52,0.00,,,0.00,Wunderground v.1.15,2013-01-07 16:00:00,
2013-01-07 11:10:00,44.6,27.1,30.30,North,5,3.0,3.0,50,0.00,,,0.00,Wunderground v.1.15,2013-01-07 16:10:00,
2013-01-07 11:20:00,44.2,27.2,30.30,North,1,3.0,6.0,51,0.00,,,0.00,Wunderground v.1.15,2013-01-07 16:20:00,
2013-01-07 11:30:00,45.1,27.6,30.30,South,182,4.0,4.0,50,0.00,,,0.00,Wunderground v.1.15,2013-01-07 16:30:00,
2013-01-07 11:40:00,45.6,28.0,30.30,NNW,333,3.0,3.0,50,0.00,,,0.00,Wunderground v.1.15,2013-01-07 16:40:00,
2013-01-07 11:50:00,45.5,26.9,30.30,South,169,3.0,3.0,48,0.00,,,0.00,Wunderground v.1.15,2013-01-07 16:50:00,
2013-01-07 12:00:00,45.7,26.6,30.31,SSW,202,3.0,12.0,47,0.00,,,-99.99,WeatherLink 6.0.2,2013-01-07 17:00:00,
2013-01-07 12:10:00,45.1,26.6,30.31,South,182,3.0,3.0,48,0.00,,,0.00,Wunderground v.1.15,2013-01-07 17:10:00,
2013-01-07 12:20:00,44.6,26.1,30.31,SSW,201,3.0,7.0,48,0.00,,,0.00,Wunderground v.1.15,2013-01-07 17:20:00,
2013-01-07 12:30:00,44.7,26.2,30.31,SSE,161,4.0,4.0,48,0.00,,,0.00,Wunderground v.1.15,2013-01-07 17:30:00,
2013-01-07 12:40:00,44.7,26.2,30.32,North,1,3.0,3.0,48,0.00,,,0.00,Wunderground v.1.15,2013-01-07 17:40:00,
2013-01-07 12:50:00,45.2,25.6,30.32,SSW,203,5.0,7.0,46,0.00,,,0.00,Wunderground v.1.15,2013-01-07 17:50:00,
2013-01-07 13:00:00,45.6,25.5,30.31,SSW,195,6.0,6.0,45,0.00,,,0.00,Wunderground v.1.15,2013-01-07 18:00:00,
2013-01-07 13:10:00,46.1,25.4,30.31,SSW,196,4.0,4.0,44,0.00,,,0.00,Wunderground v.1.15,2013-01-07 18:10:00,
2013-01-07 13:20:00,46.4,26.2,30.32,South,184,4.0,6.0,45,0.00,,,0.00,Wunderground v.1.15,2013-01-07 18:20:00,
2013-01-07 13:30:00,46.3,25.6,30.32,SW,225,4.0,15.0,44,0.00,,,-99.99,WeatherLink 6.0.2,2013-01-07 18:30:00,
2013-01-07 13:40:00,46.6,25.8,30.32,South,172,3.0,3.0,44,0.00,,,0.00,Wunderground v.1.15,2013-01-07 18:40:00,
2013-01-07 13:50:00,45.8,24.5,30.32,NNE,24,2.0,3.0,43,0.00,,,0.00,Wunderground v.1.15,2013-01-07 18:50:00,
2013-01-07 14:00:00,45.5,25.9,30.32,SW,226,3.0,3.0,46,0.00,,,0.00,Wunderground v.1.15,2013-01-07 19:00:00,
2013-01-07 14:10:00,46.6,25.3,30.32,WSW,248,4.0,4.0,43,0.00,,,0.00,Wunderground v.1.15,2013-01-07 19:10:00,
2013-01-07 14:20:00,45.2,24.0,30.33,SSW,207,3.0,3.0,43,0.00,,,0.00,Wunderground v.1.15,2013-01-07 19:20:00,
2013-01-07 14:30:00,45.5,24.3,30.34,SSE,161,2.0,2.0,43,0.00,,,0.00,Wunderground v.1.15,2013-01-07 19:30:00,
2013-01-07 14:40:00,46.2,24.3,30.34,SSW,205,4.0,4.0,42,0.00,,,0.00,Wunderground v.1.15,2013-01-07 19:40:00,
2013-01-07 14:50:00,46.4,23.4,30.34,NNW,346,3.0,4.0,40,0.00,,,0.00,Wunderground v.1.15,2013-01-07 19:50:00,
2013-01-07 15:00:00,44.9,23.2,30.34,WSW,246,3.0,3.0,42,0.00,,,0.00,Wunderground v.1.15,2013-01-07 20:00:00,
2013-01-07 15:10:00,45.4,23.6,30.34,SW,227,3.0,3.0,42,0.00,,,0.00,Wunderground v.1.15,2013-01-07 20:10:00,
2013-01-07 15:20:00,45.5,23.1,30.35,ESE,116,2.0,4.0,41,0.00,,,0.00,Wunderground v.1.15,2013-01-07 20:20:00,
2013-01-07 15:30:00,44.7,23.0,30.36,SSW,205,2.0,2.0,42,0.00,,,0.00,Wunderground v.1.15,2013-01-07 20:30:00,
2013-01-07 15:40:00,45.6,22.6,30.36,SSW,213,3.0,4.0,40,0.00,,,0.00,Wunderground v.1.15,2013-01-07 20:40:00,
2013-01-07 15:50:00,45.1,22.8,30.36,SSW,210,2.0,2.0,41,0.00,,,0.00,Wunderground v.1.15,2013-01-07 20:50:00,
2013-01-07 16:00:00,44.3,22.6,30.36,SW,225,1.0,4.0,42,0.00,,,0.00,Wunderground v.1.15,2013-01-07 21:00:00,
2013-01-07 16:10:00,44.2,22.5,30.37,WSW,242,1.0,1.0,42,0.00,,,0.00,Wunderground v.1.15,2013-01-07 21:10:00,
2013-01-07 16:20:00,43.2,23.3,30.37,SW,217,0.0,0.0,45,0.00,,,0.00,Wunderground v.1.15,2013-01-07 21:20:00,
2013-01-07 16:30:00,42.3,23.5,30.37,WSW,247,1.0,5.0,47,0.00,,,-99.99,WeatherLink 6.0.2,2013-01-07 21:30:00,
2013-01-07 16:40:00,41.3,23.6,30.38,WSW,240,1.0,1.0,49,0.00,,,0.00,Wunderground v.1.15,2013-01-07 21:40:00,
2013-01-07 16:50:00,40.6,23.9,30.38,WSW,239,1.0,2.0,51,0.00,,,0.00,Wunderground v.1.15,2013-01-07 21:50:00,
2013-01-07 17:00:00,39.8,23.6,30.38,SW,227,1.0,1.0,52,0.00,,,0.00,Wunderground v.1.15,2013-01-07 22:00:00,
2013-01-07 17:10:00,39.0,24.6,30.39,SW,235,0.0,0.0,56,0.00,,,0.00,Wunderground v.1.15,2013-01-07 22:10:00,
2013-01-07 17:20:00,38.6,25.1,30.39,SW,235,0.0,0.0,58,0.00,,,0.00,Wunderground v.1.15,2013-01-07 22:20:00,
2013-01-07 17:30:00,-999.9,-99.9,30.39,North,32767,-999.0,0.0,255,-99.99,,,0.00,Wunderground v.1.15,2013-01-07 22:30:00,
2013-01-07 17:40:00,-999.9,-99.9,30.39,North,32767,-999.0,0.0,255,-99.99,,,0.00,Wunderground v.1.15,2013-01-07 22:40:00,
2013-01-07 17:50:00,-999.9,-99.9,30.39,North,32767,-999.0,0.0,255,-99.99,,,0.00,Wunderground v.1.15,2013-01-07 22:50:00,
2013-01-07 18:00:00,35.3,25.1,30.39,SW,236,0.0,0.0,66,0.00,,,0.00,Wunderground v.1.15,2013-01-07 23:00:00,
2013-01-07 18:10:00,34.8,25.0,30.39,SW,236,0.0,0.0,67,0.00,,,0.00,Wunderground v.1.15,2013-01-07 23:10:00,
2013-01-07 18:20:00,34.4,24.9,30.39,SW,234,0.0,1.0,68,0.00,,,0.00,Wunderground v.1.15,2013-01-07 23:20:00,
2013-01-07 18:30:00,34.0,24.9,30.39,SW,235,0.0,0.0,69,0.00,,,0.00,Wunderground v.1.15,2013-01-07 23:30:00,
2013-01-07 18:40:00,33.5,24.4,30.39,SW,236,0.0,0.0,69,0.00,,,0.00,Wunderground v.1.15,2013-01-07 23:40:00,
2013-01-07 18:50:00,33.0,24.3,30.40,SW,236,0.0,0.0,70,0.00,,,0.00,Wunderground v.1.15,2013-01-07 23:50:00,
2013-01-07 19:00:00,32.6,24.2,30.40,SW,236,0.0,0.0,71,0.00,,,0.00,Wunderground v.1.15,2013-01-08 00:00:00,
2013-01-07 19:10:00,32.1,24.1,30.39,SW,236,0.0,0.0,72,0.00,,,0.00,Wunderground v.1.15,2013-01-08 00:10:00,
2013-01-07 19:20:00,31.7,23.7,30.39,SW,236,0.0,0.0,72,0.00,,,0.00,Wunderground v.1.15,2013-01-08 00:20:00,
2013-01-07 19:30:00,31.4,23.7,30.39,SW,236,0.0,0.0,73,0.00,,,0.00,Wunderground v.1.15,2013-01-08 00:30:00,
2013-01-07 19:40:00,31.1,23.8,30.39,SW,234,0.0,0.0,74,0.00,,,0.00,Wunderground v.1.15,2013-01-08 00:40:00,
2013-01-07 19:50:00,30.7,23.7,30.39,SW,235,0.0,0.0,75,0.00,,,0.00,Wunderground v.1.15,2013-01-08 00:50:00,
2013-01-07 20:00:00,30.5,23.2,30.39,SW,236,0.0,0.0,74,0.00,,,0.00,Wunderground v.1.15,2013-01-08 01:00:00,
2013-01-07 20:10:00,30.3,23.3,30.39,SW,228,0.0,0.0,75,0.00,,,0.00,Wunderground v.1.15,2013-01-08 01:10:00,
2013-01-07 20:20:00,30.1,23.4,30.40,SW,225,0.0,0.0,76,0.00,,,0.00,Wunderground v.1.15,2013-01-08 01:20:00,
2013-01-07 20:30:00,29.9,22.9,30.39,SW,227,0.0,0.0,75,0.00,,,0.00,Wunderground v.1.15,2013-01-08 01:30:00,
2013-01-07 20:40:00,29.6,23.3,30.39,SW,228,0.0,0.0,77,0.00,,,0.00,Wunderground v.1.15,2013-01-08 01:40:00,
2013-01-07 20:50:00,29.4,23.4,30.39,SW,228,0.0,0.0,78,0.00,,,0.00,Wunderground v.1.15,2013-01-08 01:50:00,
2013-01-07 21:00:00,29.0,23.0,30.39,SW,232,0.0,0.0,78,0.00,,,0.00,Wunderground v.1.15,2013-01-08 02:00:00,
2013-01-07 21:10:00,28.8,23.1,30.39,SW,233,0.0,0.0,79,0.00,,,0.00,Wunderground v.1.15,2013-01-08 02:10:00,
2013-01-07 21:20:00,28.6,23.2,30.39,SW,233,0.0,0.0,80,0.00,,,0.00,Wunderground v.1.15,2013-01-08 02:20:00,
2013-01-07 21:30:00,28.3,23.2,30.38,SW,233,0.0,0.0,81,0.00,,,0.00,Wunderground v.1.15,2013-01-08 02:30:00,
2013-01-07 21:40:00,28.1,23.0,30.38,SW,230,0.0,1.0,81,0.00,,,0.00,Wunderground v.1.15,2013-01-08 02:40:00,
2013-01-07 21:50:00,27.9,23.1,30.39,SW,232,0.0,0.0,82,0.00,,,0.00,Wunderground v.1.15,2013-01-08 02:50:00,
2013-01-07 22:00:00,27.8,23.0,30.39,SW,233,0.0,0.0,82,0.00,,,0.00,Wunderground v.1.15,2013-01-08 03:00:00,
2013-01-07 22:10:00,27.5,22.7,30.39,SW,233,0.0,0.0,82,0.00,,,0.00,Wunderground v.1.15,2013-01-08 03:10:00,
2013-01-07 22:20:00,27.6,23.1,30.39,SW,233,0.0,0.0,83,0.00,,,0.00,Wunderground v.1.15,2013-01-08 03:20:00,
2013-01-07 22:30:00,27.3,23.1,30.39,SW,234,0.0,0.0,84,0.00,,,0.00,Wunderground v.1.15,2013-01-08 03:30:00,
2013-01-07 22:40:00,27.1,22.9,30.39,SW,234,0.0,0.0,84,0.00,,,0.00,Wunderground v.1.15,2013-01-08 03:40:00,
2013-01-07 22:50:00,26.9,23.0,30.38,SW,233,0.0,0.0,85,0.00,,,0.00,Wunderground v.1.15,2013-01-08 03:50:00,
2013-01-07 23:00:00,26.7,22.8,30.38,SW,232,0.0,0.0,85,0.00,,,0.00,Wunderground v.1.15,2013-01-08 04:00:00,
2013-01-07 23:10:00,26.6,23.0,30.38,SW,231,0.0,0.0,86,0.00,,,0.00,Wunderground v.1.15,2013-01-08 04:10:00,
2013-01-07 23:20:00,26.5,22.9,30.38,SW,230,0.0,0.0,86,0.00,,,0.00,Wunderground v.1.15,2013-01-08 04:20:00,
2013-01-07 23:30:00,26.4,23.1,30.38,SW,230,0.0,0.0,87,0.00,,,0.00,Wunderground v.1.15,2013-01-08 04:30:00,
2013-01-07 23:40:00,26.2,22.9,30.38,SW,230,0.0,0.0,87,0.00,,,0.00,Wunderground v.1.15,2013-01-08 04:40:00,
2013-01-07 23:50:00,26.2,22.9,30.38,SW,229,0.0,0.0,87,0.00,,,0.00,Wunderground v.1.15,2013-01-08 04:50:00,